Time;durP1;ratioP1;P1;durP2;ratioP2;P2;SDS_P1;SDS_P2;PMS_P1;PMS_P2;Temp;Humidity;BMP_temperature;BMP_pressure;BME280_temperature;BME280_humidity;BME280_pressure;Samples;Min_cycle;Max_cycle;Signal;HPM_P1;HPM_P2
2023/07/19 00:02:39;;;;;;;;;;;;;;;;;;5059839;28;19920;-73
2023/07/19 00:05:25;;;;;;;;;;;;;;;;;;5069661;28;19913;-75
2023/07/19 00:08:12;;;;;;;;;;;;;;;;;;5064458;28;19940;-79
2023/07/19 00:10:58;;;;;;;;;;;;;;;;;;5057881;28;19924;-75
2023/07/19 00:13:45;;;;;;;;;;;;;;;;;;5062979;28;19920;-75
2023/07/19 00:16:31;;;;;;;;;;;;;;;;;;5057994;28;20466;-75
2023/07/19 00:19:18;;;;;;;;;;;;;;;;;;5058923;28;20432;-75
2023/07/19 00:22:04;;;;;;;;;;;;;;;;;;5059592;28;19921;-77
2023/07/19 00:24:50;;;;;;;;;;;;;;;;;;5053329;28;19916;-76
2023/07/19 00:27:37;;;;;;;;;;;;;;;;;;5046875;28;20381;-76
2023/07/19 00:30:23;;;;;;;;;;;;;;;;;;5058774;28;19935;-75
2023/07/19 00:33:10;;;;;;;;;;;;;;;;;;5043564;28;20414;-76
2023/07/19 00:35:56;;;;;;;;;;;;;;;;;;5060092;28;19924;-77
2023/07/19 00:38:43;;;;;;;;;;;;;;;;;;5059734;28;19931;-76
2023/07/19 00:41:29;;;;;;;;;;;;;;;;;;5060608;28;19921;-76
2023/07/19 00:44:16;;;;;;;;;;;;;;;;;;5037821;28;20291;-77
2023/07/19 00:47:02;;;;;;;;;;;;;;;;;;5062425;28;19926;-77
2023/07/19 00:49:49;;;;;;;;;;;;;;;;;;5059687;28;19929;-77
2023/07/19 00:52:35;;;;;;;;;;;;;;;;;;5062062;28;20403;-77
2023/07/19 00:55:22;;;;;;;;;;;;;;;;;;5063194;28;19920;-76
2023/07/19 00:58:08;;;;;;;;;;;;;;;;;;5057788;28;19921;-76
2023/07/19 06:57:50;;;;;;;;;;;;;;;;;;4971594;28;19930;-76
2023/07/19 07:00:37;;;;;;;;;;;;;;;;;;4969994;28;19928;-76
2023/07/19 07:03:23;;;;;;;;;;;;;;;;;;4977966;28;20012;-77
2023/07/19 07:06:10;;;;;;;;;;;;;;;;;;4967762;28;19952;-78
2023/07/19 07:08:56;;;;;;;;;;;;;;;;;;4982913;28;19922;-78
2023/07/19 07:11:43;;;;;;;;;;;;;;;;;;4988657;28;19937;-77
2023/07/19 07:14:29;;;;;;;;;;;;;;;;;;4979963;28;19922;-82
2023/07/19 07:17:16;;;;;;;;;;;;;;;;;;4980106;28;19945;-78
2023/07/19 07:20:02;;;;;;;;;;;;;;;;;;4982796;28;19929;-77
2023/07/19 07:22:49;;;;;;;;;;;;;;;;;;4983361;28;20684;-77
2023/07/19 07:25:35;;;;;;;;;;;;;;;;;;4988967;28;19921;-78
2023/07/19 07:28:22;;;;;;;;;;;;;;;;;;4976399;28;19933;-77
2023/07/19 07:31:09;;;;;;;;;;;;;;;;;;4973012;28;19934;-77
2023/07/19 07:33:57;;;;;;;;;;;;;;;;;;4980615;28;19918;-78
2023/07/19 07:36:44;;;;;;;;;;;;;;;;;;4985815;28;19922;-77
2023/07/19 07:39:30;;;;;;;;;;;;;;;;;;4981349;28;21386;-77
2023/07/19 07:42:17;;;;;;;;;;;;;;;;;;4959803;28;19928;-77
2023/07/19 07:45:04;;;;;;;;;;;;;;;;;;4974599;28;19922;-80
2023/07/19 07:47:50;;;;;;;;;;;;;;;;;;4979218;28;19918;-81
2023/07/19 07:50:37;;;;;;;;;;;;;;;;;;4991752;28;19945;-79
2023/07/19 07:53:23;;;;;;;;;;;;;;;;;;4996221;28;19921;-80
2023/07/19 07:56:10;;;;;;;;;;;;;;;;;;4965581;28;19931;-80
2023/07/19 07:58:56;;;;;;;;;;;;;;;;;;4968753;28;19923;-78
2023/07/19 08:01:43;;;;;;;;;;;;;;;;;;4970641;28;19934;-76
2023/07/19 08:04:29;;;;;;;;;;;;;;;;;;4971460;28;19944;-81
2023/07/19 08:07:16;;;;;;;;;;;;;;;;;;4982955;28;19922;-83
2023/07/19 08:10:02;;;;;;;;;;;;;;;;;;4990159;28;19934;-81
2023/07/19 08:12:49;;;;;;;;;;;;;;;;;;4983287;28;19926;-83
2023/07/19 08:15:35;;;;;;;;;;;;;;;;;;4977926;28;19922;-79
2023/07/19 08:18:22;;;;;;;;;;;;;;;;;;4977296;28;19944;-80
2023/07/19 08:21:08;;;;;;;;;;;;;;;;;;4982757;28;19955;-80
2023/07/19 08:23:56;;;;;;;;;;;;;;;;;;4969429;28;19928;-79
2023/07/19 08:26:43;;;;;;;;;;;;;;;;;;4970264;28;19922;-80
2023/07/19 08:29:29;;;;;;;;;;;;;;;;;;4962411;28;19932;-79
2023/07/19 08:32:16;;;;;;;;;;;;;;;;;;4964116;28;19926;-78
2023/07/19 08:35:02;;;;;;;;;;;;;;;;;;4964471;28;20325;-77
2023/07/19 08:37:49;;;;;;;;;;;;;;;;;;4964139;28;20407;-79
2023/07/19 08:40:36;;;;;;;;;;;;;;;;;;4962697;28;19922;-76
2023/07/19 08:43:22;;;;;;;;;;;;;;;;;;4958272;28;20424;-77
2023/07/19 08:46:09;;;;;;;;;;;;;;;;;;4969486;28;19933;-78
2023/07/19 08:48:55;;;;;;;;;;;;;;;;;;4963636;28;21468;-76
2023/07/19 08:51:41;;;;;;;;;;;;;;;;;;4961208;28;19936;-77
2023/07/19 08:54:28;;;;;;;;;;;;;;;;;;4968735;28;20320;-76
2023/07/19 08:57:15;;;;;;;;;;;;;;;;;;4963617;28;20594;-76
2023/07/19 09:00:01;;;;;;;;;;;;;;;;;;4969521;28;20615;-76
2023/07/19 09:02:48;;;;;;;;;;;;;;;;;;4967036;28;19934;-75
2023/07/19 09:05:35;;;;;;;;;;;;;;;;;;4968504;28;19922;-76
2023/07/19 09:08:21;;;;;;;;;;;;;;;;;;4970518;28;20460;-74
2023/07/19 09:11:08;;;;;;;;;;;;;;;;;;4963365;28;20332;-74
2023/07/19 09:13:55;;;;;;;;;;;;;;;;;;4958672;28;19918;-75
2023/07/19 09:16:41;;;;;;;;;;;;;;;;;;4966526;28;19926;-73
2023/07/19 09:19:28;;;;;;;;;;;;;;;;;;4966578;28;20488;-74
2023/07/19 09:22:14;;;;;;;;;;;;;;;;;;4960303;28;19926;-75
2023/07/19 09:25:01;;;;;;;;;;;;;;;;;;4952579;28;19918;-78
2023/07/19 09:27:48;;;;;;;;;;;;;;;;;;4957161;28;19941;-75
2023/07/19 09:30:35;;;;;;;;;;;;;;;;;;4963177;28;19937;-75
2023/07/19 09:33:21;;;;;;;;;;;;;;;;;;4951226;28;19922;-75
2023/07/19 09:36:08;;;;;;;;;;;;;;;;;;4970181;28;19926;-75
2023/07/19 09:38:54;;;;;;;;;;;;;;;;;;4967626;28;19964;-74
2023/07/19 09:41:43;;;;;;;;;;;;;;;;;;4966835;28;19934;-75
2023/07/19 09:44:29;;;;;;;;;;;;;;;;;;4958015;28;20334;-76
2023/07/19 09:47:16;;;;;;;;;;;;;;;;;;4969723;28;19924;-74
2023/07/19 09:50:04;;;;;;;;;;;;;;;;;;4969782;28;20377;-76
2023/07/19 09:52:51;;;;;;;;;;;;;;;;;;4966880;28;19927;-75
2023/07/19 09:55:37;;;;;;;;;;;;;;;;;;4958803;28;19955;-75
2023/07/19 09:58:24;;;;;;;;;;;;;;;;;;4970022;28;19928;-75
2023/07/19 10:01:10;;;;;;;;;;;;;;;;;;4958977;28;19940;-76
2023/07/19 10:03:57;;;;;;;;;;;;;;;;;;4965099;28;19922;-75
2023/07/19 10:06:43;;;;;;;;;;;;;;;;;;4964392;28;19938;-74
2023/07/19 10:09:30;;;;;;;;;;;;;;;;;;4947386;28;19927;-74
2023/07/19 10:12:16;;;;;;;;;;;;;;;;;;4967338;28;19922;-74
2023/07/19 10:15:02;;;;;;;;;;;;;;;;;;4961396;28;19929;-75
2023/07/19 10:17:49;;;;;;;;;;;;;;;;;;4964500;28;19926;-74
2023/07/19 10:20:35;;;;;;;;;;;;;;;;;;4955023;28;19923;-74
2023/07/19 10:23:22;;;;;;;;;;;;;;;;;;4955172;28;19924;-75
2023/07/19 10:26:09;;;;;;;;;;;;;;;;;;4961431;28;19928;-75
2023/07/19 10:28:55;;;;;;;;;;;;;;;;;;4958527;28;19930;-74
2023/07/19 10:31:42;;;;;;;;;;;;;;;;;;4965075;28;19930;-75
2023/07/19 10:34:29;;;;;;;;;;;;;;;;;;4959246;28;19937;-76
2023/07/19 10:37:15;;;;;;;;;;;;;;;;;;4952344;28;20216;-75
2023/07/19 10:40:02;;;;;;;;;;;;;;;;;;4963213;28;19923;-72
2023/07/19 10:42:48;;;;;;;;;;;;;;;;;;4975380;28;19929;-73
2023/07/19 10:45:35;;;;;;;;;;;;;;;;;;4960164;28;20297;-75
2023/07/19 10:48:21;;;;;;;;;;;;;;;;;;4967232;28;19926;-75
2023/07/19 10:51:08;;;;;;;;;;;;;;;;;;4960099;28;19933;-74
2023/07/19 10:53:57;;;;;;;;;;;;;;;;;;4969405;28;19922;-74
2023/07/19 10:56:43;;;;;;;;;;;;;;;;;;4967879;28;19933;-74
2023/07/19 10:59:30;;;;;;;;;;;;;;;;;;4968995;28;20214;-75
2023/07/19 11:02:17;;;;;;;;;;;;;;;;;;4971833;28;19929;-75
2023/07/19 11:05:04;;;;;;;;;;;;;;;;;;4960342;28;19919;-74
2023/07/19 11:07:50;;;;;;;;;;;;;;;;;;4952102;28;19922;-75
2023/07/19 11:10:37;;;;;;;;;;;;;;;;;;4966392;28;19941;-75
2023/07/19 11:13:23;;;;;;;;;;;;;;;;;;4966934;28;19949;-73
2023/07/19 11:16:10;;;;;;;;;;;;;;;;;;4973952;28;19932;-75
2023/07/19 11:18:57;;;;;;;;;;;;;;;;;;4966452;28;19922;-76
2023/07/19 11:21:44;;;;;;;;;;;;;;;;;;4952701;28;19919;-75
2023/07/19 11:24:30;;;;;;;;;;;;;;;;;;4964881;28;19921;-75
2023/07/19 11:27:17;;;;;;;;;;;;;;;;;;4967788;28;19918;-75
2023/07/19 11:30:03;;;;;;;;;;;;;;;;;;4965100;28;19946;-76
2023/07/19 11:32:50;;;;;;;;;;;;;;;;;;4967100;28;19948;-76
2023/07/19 11:35:36;;;;;;;;;;;;;;;;;;4974363;28;19922;-75
2023/07/19 11:38:23;;;;;;;;;;;;;;;;;;4969300;28;20583;-75
2023/07/19 11:41:09;;;;;;;;;;;;;;;;;;4957270;28;19933;-74
2023/07/19 11:43:56;;;;;;;;;;;;;;;;;;4952657;28;19926;-75
2023/07/19 11:46:42;;;;;;;;;;;;;;;;;;4971048;28;19928;-76
2023/07/19 11:49:29;;;;;;;;;;;;;;;;;;4969508;28;19919;-74
2023/07/19 11:52:15;;;;;;;;;;;;;;;;;;4962466;28;19934;-76
2023/07/19 11:55:02;;;;;;;;;;;;;;;;;;4968397;28;20284;-75
2023/07/19 11:57:49;;;;;;;;;;;;;;;;;;4959085;28;19932;-76
2023/07/19 12:00:35;;;;;;;;;;;;;;;;;;4971217;28;19926;-77
2023/07/19 12:03:22;;;;;;;;;;;;;;;;;;4969619;28;19923;-74
2023/07/19 12:06:08;;;;;;;;;;;;;;;;;;4969471;28;19921;-75
2023/07/19 12:08:55;;;;;;;;;;;;;;;;;;4969482;28;19918;-75
2023/07/19 12:11:43;;;;;;;;;;;;;;;;;;4963937;28;19930;-76
2023/07/19 12:14:30;;;;;;;;;;;;;;;;;;4966791;28;19925;-76
2023/07/19 12:17:16;;;;;;;;;;;;;;;;;;4973068;28;19926;-75
2023/07/19 12:20:03;;;;;;;;;;;;;;;;;;4985223;28;19922;-75
2023/07/19 12:22:50;;;;;;;;;;;;;;;;;;4966602;28;19926;-75
2023/07/19 12:25:36;;;;;;;;;;;;;;;;;;4959208;28;20259;-76
2023/07/19 12:28:23;;;;;;;;;;;;;;;;;;4962856;28;19926;-75
2023/07/19 12:31:10;;;;;;;;;;;;;;;;;;4962286;28;19930;-76
2023/07/19 12:33:56;;;;;;;;;;;;;;;;;;4967622;28;19918;-77
2023/07/19 12:36:43;;;;;;;;;;;;;;;;;;4971606;28;19918;-75
2023/07/19 12:39:30;;;;;;;;;;;;;;;;;;4969310;28;19927;-76
2023/07/19 12:42:16;;;;;;;;;;;;;;;;;;4963368;28;19926;-76
2023/07/19 12:45:03;;;;;;;;;;;;;;;;;;4958770;28;19922;-76
2023/07/19 12:47:49;;;;;;;;;;;;;;;;;;4970345;28;20174;-77
2023/07/19 12:50:37;;;;;;;;;;;;;;;;;;4962400;28;19950;-76
2023/07/19 12:53:23;;;;;;;;;;;;;;;;;;4960456;28;19922;-77
2023/07/19 12:56:10;;;;;;;;;;;;;;;;;;4967261;28;19934;-76
2023/07/19 12:58:56;;;;;;;;;;;;;;;;;;4948477;28;20017;-76
2023/07/19 13:01:43;;;;;;;;;;;;;;;;;;4965277;28;19918;-76
2023/07/19 13:04:29;;;;;;;;;;;;;;;;;;4954304;28;19923;-78
2023/07/19 13:07:16;;;;;;;;;;;;;;;;;;4968021;28;19924;-76
2023/07/19 13:10:02;;;;;;;;;;;;;;;;;;4967562;28;19929;-79
2023/07/19 13:12:49;;;;;;;;;;;;;;;;;;4968421;28;19957;-78
2023/07/19 13:15:36;;;;;;;;;;;;;;;;;;4955896;28;19926;-79
2023/07/19 13:18:23;;;;;;;;;;;;;;;;;;4966574;28;19918;-79
2023/07/19 13:21:09;;;;;;;;;;;;;;;;;;4954716;28;20386;-78
2023/07/19 13:23:56;;;;;;;;;;;;;;;;;;4968949;28;19922;-77
2023/07/19 13:26:43;;;;;;;;;;;;;;;;;;4943950;28;19942;-79
2023/07/19 13:29:30;;;;;;;;;;;;;;;;;;4949245;28;19930;-78
2023/07/19 13:32:16;;;;;;;;;;;;;;;;;;4957617;28;20341;-77
2023/07/19 13:35:03;;;;;;;;;;;;;;;;;;4966756;28;19929;-78
2023/07/19 13:37:50;;;;;;;;;;;;;;;;;;4958139;28;19929;-78
2023/07/19 13:40:37;;;;;;;;;;;;;;;;;;4951040;28;19923;-75
2023/07/19 13:43:23;;;;;;;;;;;;;;;;;;4952687;28;19925;-74
2023/07/19 13:46:10;;;;;;;;;;;;;;;;;;4951451;28;19926;-75
2023/07/19 13:48:56;;;;;;;;;;;;;;;;;;4977551;28;19927;-73
2023/07/19 13:51:43;;;;;;;;;;;;;;;;;;4967411;28;19931;-76
2023/07/19 13:54:29;;;;;;;;;;;;;;;;;;4966139;28;20300;-76
2023/07/19 13:57:16;;;;;;;;;;;;;;;;;;4964084;28;19937;-74
2023/07/19 14:00:03;;;;;;;;;;;;;;;;;;4972838;28;19926;-76
2023/07/19 14:02:49;;;;;;;;;;;;;;;;;;4973948;28;19922;-76
2023/07/19 14:05:36;;;;;;;;;;;;;;;;;;4969974;28;19922;-74
2023/07/19 14:08:22;;;;;;;;;;;;;;;;;;4963459;28;19922;-75
2023/07/19 14:11:09;;;;;;;;;;;;;;;;;;4958202;28;19930;-74
2023/07/19 14:13:55;;;;;;;;;;;;;;;;;;4970446;28;19928;-75
2023/07/19 14:16:42;;;;;;;;;;;;;;;;;;4945498;28;19933;-76
2023/07/19 14:19:28;;;;;;;;;;;;;;;;;;4959304;28;19918;-74
2023/07/19 14:22:15;;;;;;;;;;;;;;;;;;4964570;28;20414;-74
2023/07/19 14:25:01;;;;;;;;;;;;;;;;;;4967071;28;19929;-76
2023/07/19 14:27:48;;;;;;;;;;;;;;;;;;4954168;28;19930;-76
2023/07/19 14:30:35;;;;;;;;;;;;;;;;;;4975666;28;19940;-75
2023/07/19 14:33:22;;;;;;;;;;;;;;;;;;4960399;28;19929;-74
2023/07/19 14:36:08;;;;;;;;;;;;;;;;;;4968864;28;19929;-75
2023/07/19 14:38:54;;;;;;;;;;;;;;;;;;4965653;28;19965;-76
2023/07/19 14:41:41;;;;;;;;;;;;;;;;;;4962574;28;19922;-76
2023/07/19 14:44:28;;;;;;;;;;;;;;;;;;4964531;28;19932;-75
2023/07/19 14:47:14;;;;;;;;;;;;;;;;;;4957770;28;19918;-76
2023/07/19 14:50:01;;;;;;;;;;;;;;;;;;4964233;28;19922;-75
2023/07/19 14:52:48;;;;;;;;;;;;;;;;;;4946070;28;19933;-74
2023/07/19 14:55:35;;;;;;;;;;;;;;;;;;4965795;28;19933;-75
2023/07/19 14:58:21;;;;;;;;;;;;;;;;;;4963355;28;19922;-74
2023/07/19 15:01:11;;;;;;;;;;;;;;;;;;4970736;28;19938;-74
2023/07/19 15:03:57;;;;;;;;;;;;;;;;;;4966708;28;19958;-75
2023/07/19 15:06:44;;;;;;;;;;;;;;;;;;4961336;28;20293;-74
2023/07/19 15:09:30;;;;;;;;;;;;;;;;;;4957672;28;20431;-74
2023/07/19 15:12:17;;;;;;;;;;;;;;;;;;4966187;28;19934;-75
2023/07/19 15:15:04;;;;;;;;;;;;;;;;;;4958992;28;19929;-75
2023/07/19 15:17:50;;;;;;;;;;;;;;;;;;4962174;28;19929;-74
2023/07/19 15:20:37;;;;;;;;;;;;;;;;;;4962819;28;19922;-76
2023/07/19 15:23:24;;;;;;;;;;;;;;;;;;4967349;28;19922;-74
2023/07/19 15:26:10;;;;;;;;;;;;;;;;;;4971477;28;20612;-74
2023/07/19 15:28:57;;;;;;;;;;;;;;;;;;4957323;28;19922;-76
2023/07/19 15:31:43;;;;;;;;;;;;;;;;;;4972071;28;19953;-75
2023/07/19 15:34:30;;;;;;;;;;;;;;;;;;4969824;28;19926;-76
2023/07/19 15:37:16;;;;;;;;;;;;;;;;;;4961536;28;20325;-75
2023/07/19 15:40:03;;;;;;;;;;;;;;;;;;4972672;28;19922;-75
2023/07/19 15:42:50;;;;;;;;;;;;;;;;;;4972764;28;20292;-73
2023/07/19 15:45:37;;;;;;;;;;;;;;;;;;4952276;28;19942;-73
2023/07/19 15:48:23;;;;;;;;;;;;;;;;;;4949735;28;19930;-74
2023/07/19 15:51:10;;;;;;;;;;;;;;;;;;4971086;28;19960;-73
2023/07/19 15:53:57;;;;;;;;;;;;;;;;;;4958046;28;19922;-74
2023/07/19 15:56:43;;;;;;;;;;;;;;;;;;4961522;28;19941;-74
2023/07/19 15:59:30;;;;;;;;;;;;;;;;;;4963322;28;19928;-74
2023/07/19 16:02:16;;;;;;;;;;;;;;;;;;4963332;28;20353;-76
2023/07/19 16:05:03;;;;;;;;;;;;;;;;;;4964462;28;19929;-75
2023/07/19 16:07:49;;;;;;;;;;;;;;;;;;4965818;28;20439;-79
2023/07/19 16:10:36;;;;;;;;;;;;;;;;;;4959083;28;19933;-75
2023/07/19 16:13:22;;;;;;;;;;;;;;;;;;4965022;28;19922;-76
2023/07/19 16:16:09;;;;;;;;;;;;;;;;;;4953422;28;20368;-75
2023/07/19 16:18:55;;;;;;;;;;;;;;;;;;4953074;28;19926;-74
2023/07/19 16:21:43;;;;;;;;;;;;;;;;;;4949118;28;19922;-74
2023/07/19 16:24:29;;;;;;;;;;;;;;;;;;4954798;28;19923;-74
2023/07/19 16:27:16;;;;;;;;;;;;;;;;;;4959985;28;19922;-74
2023/07/19 16:30:02;;;;;;;;;;;;;;;;;;4966955;28;20306;-75
2023/07/19 16:32:49;;;;;;;;;;;;;;;;;;4948890;28;19965;-76
2023/07/19 16:35:35;;;;;;;;;;;;;;;;;;4950325;28;19914;-75
2023/07/19 16:38:22;;;;;;;;;;;;;;;;;;4961746;28;19918;-76
2023/07/19 16:41:08;;;;;;;;;;;;;;;;;;4952161;28;19922;-76
2023/07/19 16:43:55;;;;;;;;;;;;;;;;;;4961154;28;19923;-74
2023/07/19 16:46:43;;;;;;;;;;;;;;;;;;4960452;28;19928;-74
2023/07/19 16:49:30;;;;;;;;;;;;;;;;;;4959212;28;19922;-76
2023/07/19 16:52:16;;;;;;;;;;;;;;;;;;4961639;28;21489;-75
2023/07/19 16:55:03;;;;;;;;;;;;;;;;;;4958891;28;19924;-74
2023/07/19 16:57:49;;;;;;;;;;;;;;;;;;4956366;28;19926;-74
2023/07/19 17:00:36;;;;;;;;;;;;;;;;;;4967645;28;19926;-75
2023/07/19 17:03:22;;;;;;;;;;;;;;;;;;4956121;28;19918;-73
2023/07/19 17:06:10;;;;;;;;;;;;;;;;;;4964746;28;19961;-77
2023/07/19 17:08:56;;;;;;;;;;;;;;;;;;4950165;28;20037;-75
2023/07/19 17:11:43;;;;;;;;;;;;;;;;;;4950284;28;19930;-75
2023/07/19 17:14:29;;;;;;;;;;;;;;;;;;4946293;28;19923;-75
2023/07/19 17:17:16;;;;;;;;;;;;;;;;;;4965424;28;19937;-75
2023/07/19 17:20:03;;;;;;;;;;;;;;;;;;4960781;28;19918;-75
2023/07/19 17:22:49;;;;;;;;;;;;;;;;;;4960582;28;20412;-74
2023/07/19 17:25:35;;;;;;;;;;;;;;;;;;4960018;28;19929;-75
2023/07/19 17:28:22;;;;;;;;;;;;;;;;;;4964554;28;19934;-75
2023/07/19 17:31:08;;;;;;;;;;;;;;;;;;4967385;28;19928;-75
2023/07/19 17:33:55;;;;;;;;;;;;;;;;;;4975275;28;19921;-76
2023/07/19 17:36:42;;;;;;;;;;;;;;;;;;4973532;28;19915;-75
2023/07/19 17:39:28;;;;;;;;;;;;;;;;;;4951026;28;19929;-76
2023/07/19 17:42:15;;;;;;;;;;;;;;;;;;4960515;28;19914;-75
2023/07/19 17:45:01;;;;;;;;;;;;;;;;;;4955146;28;20428;-74
2023/07/19 17:47:47;;;;;;;;;;;;;;;;;;4955150;28;19929;-76
2023/07/19 17:50:34;;;;;;;;;;;;;;;;;;4952360;28;19933;-75
2023/07/19 17:53:21;;;;;;;;;;;;;;;;;;4967742;28;19922;-76
2023/07/19 17:56:07;;;;;;;;;;;;;;;;;;4963913;28;19930;-72
2023/07/19 17:58:54;;;;;;;;;;;;;;;;;;4964314;28;20262;-73
2023/07/19 18:01:40;;;;;;;;;;;;;;;;;;4966964;28;19922;-73
2023/07/19 18:04:27;;;;;;;;;;;;;;;;;;4964600;28;19926;-74
2023/07/19 18:07:13;;;;;;;;;;;;;;;;;;4959325;28;20479;-73
2023/07/19 18:10:00;;;;;;;;;;;;;;;;;;4962996;28;19969;-74
2023/07/19 18:12:46;;;;;;;;;;;;;;;;;;4974564;28;19937;-73
2023/07/19 18:15:32;;;;;;;;;;;;;;;;;;4970594;28;19918;-73
2023/07/19 18:18:19;;;;;;;;;;;;;;;;;;4964826;28;20585;-73
2023/07/19 18:21:05;;;;;;;;;;;;;;;;;;4959982;28;19991;-73
2023/07/19 18:23:52;;;;;;;;;;;;;;;;;;4973712;28;20493;-75
2023/07/19 18:26:38;;;;;;;;;;;;;;;;;;4972381;28;20461;-73
2023/07/19 18:29:25;;;;;;;;;;;;;;;;;;4969203;28;19922;-73
2023/07/19 18:32:12;;;;;;;;;;;;;;;;;;4967456;28;19926;-73
2023/07/19 18:34:58;;;;;;;;;;;;;;;;;;4955861;28;20399;-73
2023/07/19 18:37:45;;;;;;;;;;;;;;;;;;4957738;28;19923;-73
2023/07/19 18:40:31;;;;;;;;;;;;;;;;;;4961730;28;19926;-73
2023/07/19 18:43:18;;;;;;;;;;;;;;;;;;4957124;28;19931;-73
2023/07/19 18:46:04;;;;;;;;;;;;;;;;;;4957682;28;19922;-74
2023/07/19 18:48:51;;;;;;;;;;;;;;;;;;4957938;28;19922;-72
2023/07/19 18:51:38;;;;;;;;;;;;;;;;;;4958130;28;19933;-73
2023/07/19 18:54:24;;;;;;;;;;;;;;;;;;4957102;28;19944;-73
2023/07/19 18:57:11;;;;;;;;;;;;;;;;;;4955676;28;19941;-73
2023/07/19 18:59:57;;;;;;;;;;;;;;;;;;4971128;28;19929;-72
2023/07/19 19:02:44;;;;;;;;;;;;;;;;;;4960164;28;19949;-73
2023/07/19 19:05:30;;;;;;;;;;;;;;;;;;4962804;28;19925;-73
2023/07/19 19:08:18;;;;;;;;;;;;;;;;;;4960945;28;20370;-73
2023/07/19 19:11:05;;;;;;;;;;;;;;;;;;4966195;28;19929;-72
2023/07/19 19:13:52;;;;;;;;;;;;;;;;;;4963152;28;19933;-75
2023/07/19 19:16:38;;;;;;;;;;;;;;;;;;4963387;28;19959;-73
2023/07/19 19:19:26;;;;;;;;;;;;;;;;;;4956361;28;20354;-73
2023/07/19 19:22:14;;;;;;;;;;;;;;;;;;4963212;28;19929;-73
2023/07/19 19:25:00;;;;;;;;;;;;;;;;;;4963164;28;19930;-72
2023/07/19 19:27:47;;;;;;;;;;;;;;;;;;4959920;28;19933;-72
2023/07/19 19:30:35;;;;;;;;;;;;;;;;;;4960465;28;19918;-73
2023/07/19 19:33:21;;;;;;;;;;;;;;;;;;4957940;28;19946;-73
2023/07/19 19:36:08;;;;;;;;;;;;;;;;;;4958443;28;19919;-73
2023/07/19 19:38:55;;;;;;;;;;;;;;;;;;4964269;28;19930;-73
2023/07/19 19:41:41;;;;;;;;;;;;;;;;;;4948767;28;19918;-73
2023/07/19 19:44:28;;;;;;;;;;;;;;;;;;4962645;28;19929;-74
2023/07/19 19:47:14;;;;;;;;;;;;;;;;;;4958906;28;19918;-74
2023/07/19 19:50:01;;;;;;;;;;;;;;;;;;4952602;28;20413;-72
2023/07/19 19:52:47;;;;;;;;;;;;;;;;;;4957589;28;19936;-73
2023/07/19 19:55:35;;;;;;;;;;;;;;;;;;4959822;28;19988;-73
2023/07/19 19:58:22;;;;;;;;;;;;;;;;;;4950143;28;19940;-72
2023/07/19 20:01:09;;;;;;;;;;;;;;;;;;4966792;28;19918;-73
2023/07/19 20:03:55;;;;;;;;;;;;;;;;;;4966897;28;19919;-72
2023/07/19 20:06:42;;;;;;;;;;;;;;;;;;4956405;28;19918;-72
2023/07/19 20:09:29;;;;;;;;;;;;;;;;;;4947183;28;20386;-73
2023/07/19 20:12:16;;;;;;;;;;;;;;;;;;4955176;28;20306;-74
2023/07/19 20:15:02;;;;;;;;;;;;;;;;;;4964959;28;19926;-72
2023/07/19 20:17:48;;;;;;;;;;;;;;;;;;4952721;28;20223;-74
2023/07/19 20:20:35;;;;;;;;;;;;;;;;;;4962419;28;20661;-73
2023/07/19 20:23:22;;;;;;;;;;;;;;;;;;4960467;28;19986;-75
2023/07/19 20:26:08;;;;;;;;;;;;;;;;;;4959043;28;19925;-74
2023/07/19 20:28:55;;;;;;;;;;;;;;;;;;4961541;28;19918;-75
2023/07/19 20:31:41;;;;;;;;;;;;;;;;;;4951499;28;19933;-74
2023/07/19 20:34:29;;;;;;;;;;;;;;;;;;4963277;28;19921;-74
2023/07/19 20:37:15;;;;;;;;;;;;;;;;;;4955057;28;19914;-75
2023/07/19 20:40:03;;;;;;;;;;;;;;;;;;4944938;28;19929;-74
2023/07/19 20:42:52;;;;;;;;;;;;;;;;;;4963045;28;24399;-74
2023/07/19 20:45:38;;;;;;;;;;;;;;;;;;4965760;28;19918;-74
2023/07/19 20:48:25;;;;;;;;;;;;;;;;;;4956382;28;19919;-74
2023/07/19 20:51:11;;;;;;;;;;;;;;;;;;4948102;28;19933;-74
2023/07/19 20:53:58;;;;;;;;;;;;;;;;;;4952021;28;19926;-76
2023/07/19 20:56:45;;;;;;;;;;;;;;;;;;4939611;28;19927;-73
2023/07/19 20:59:32;;;;;;;;;;;;;;;;;;4956828;28;19926;-74
2023/07/19 21:02:19;;;;;;;;;;;;;;;;;;4964044;28;19920;-74
2023/07/19 21:05:05;;;;;;;;;;;;;;;;;;4956104;28;19915;-74
2023/07/19 21:07:52;;;;;;;;;;;;;;;;;;4946454;28;20408;-74
2023/07/19 21:10:39;;;;;;;;;;;;;;;;;;4955652;28;19918;-73
2023/07/19 21:13:25;;;;;;;;;;;;;;;;;;4964419;28;19929;-74
2023/07/19 21:16:12;;;;;;;;;;;;;;;;;;4951598;28;19918;-74
2023/07/19 21:18:58;;;;;;;;;;;;;;;;;;4952995;28;19914;-73
2023/07/19 21:21:46;;;;;;;;;;;;;;;;;;4960976;28;19918;-73
2023/07/19 21:24:33;;;;;;;;;;;;;;;;;;4964811;28;19929;-75
2023/07/19 21:27:19;;;;;;;;;;;;;;;;;;4960818;28;19926;-74
2023/07/19 21:30:06;;;;;;;;;;;;;;;;;;4959339;28;19977;-74
2023/07/19 21:32:52;;;;;;;;;;;;;;;;;;4961823;28;19930;-74
2023/07/19 21:35:39;;;;;;;;;;;;;;;;;;4955230;28;19930;-73
2023/07/19 21:38:27;;;;;;;;;;;;;;;;;;4956776;28;20297;-74
2023/07/19 21:41:14;;;;;;;;;;;;;;;;;;4959667;28;19947;-73
2023/07/19 21:44:00;;;;;;;;;;;;;;;;;;4954969;28;20417;-74
2023/07/19 21:46:47;;;;;;;;;;;;;;;;;;4961642;28;19922;-73
2023/07/19 21:49:33;;;;;;;;;;;;;;;;;;4960932;28;19984;-73
2023/07/19 21:52:20;;;;;;;;;;;;;;;;;;4962499;28;19933;-73
2023/07/19 21:55:06;;;;;;;;;;;;;;;;;;4960895;28;19921;-74
2023/07/19 21:57:53;;;;;;;;;;;;;;;;;;4956673;28;19931;-75
2023/07/19 22:00:39;;;;;;;;;;;;;;;;;;4949048;28;20378;-73
2023/07/19 22:03:26;;;;;;;;;;;;;;;;;;4949881;28;19919;-75
2023/07/19 22:06:12;;;;;;;;;;;;;;;;;;4943859;28;19934;-75
2023/07/19 22:09:00;;;;;;;;;;;;;;;;;;4944221;28;19922;-74
2023/07/19 22:11:46;;;;;;;;;;;;;;;;;;4958159;28;19931;-74
2023/07/19 22:14:32;;;;;;;;;;;;;;;;;;4954257;28;19929;-76
2023/07/19 22:17:19;;;;;;;;;;;;;;;;;;4956778;28;20011;-73
2023/07/19 22:20:06;;;;;;;;;;;;;;;;;;4948536;28;19918;-76
2023/07/19 22:22:52;;;;;;;;;;;;;;;;;;4943048;28;19923;-74
2023/07/19 22:25:39;;;;;;;;;;;;;;;;;;4957782;28;19956;-75
2023/07/19 22:28:26;;;;;;;;;;;;;;;;;;4949954;28;19921;-74
2023/07/19 22:31:12;;;;;;;;;;;;;;;;;;4946604;28;20015;-74
2023/07/19 22:33:59;;;;;;;;;;;;;;;;;;4953760;28;19918;-74
2023/07/19 22:36:45;;;;;;;;;;;;;;;;;;4959147;28;19918;-74
2023/07/19 22:39:32;;;;;;;;;;;;;;;;;;4962363;28;19941;-74
2023/07/19 22:42:18;;;;;;;;;;;;;;;;;;4964026;28;19934;-74
2023/07/19 22:45:05;;;;;;;;;;;;;;;;;;4959935;28;19922;-75
2023/07/19 22:47:51;;;;;;;;;;;;;;;;;;4936432;28;19924;-74
2023/07/19 22:50:38;;;;;;;;;;;;;;;;;;4955534;28;20282;-75
2023/07/19 22:53:24;;;;;;;;;;;;;;;;;;4973335;28;19932;-74
2023/07/19 22:56:11;;;;;;;;;;;;;;;;;;4949718;28;20303;-73
2023/07/19 22:58:58;;;;;;;;;;;;;;;;;;4947907;28;19938;-75
2023/07/19 23:01:45;;;;;;;;;;;;;;;;;;4957033;28;19923;-74
2023/07/19 23:04:31;;;;;;;;;;;;;;;;;;4961718;28;19919;-74
2023/07/19 23:07:18;;;;;;;;;;;;;;;;;;4956854;28;19920;-74
2023/07/19 23:10:04;;;;;;;;;;;;;;;;;;4963340;28;19914;-73
2023/07/19 23:12:52;;;;;;;;;;;;;;;;;;4950643;28;19922;-74
2023/07/19 23:15:38;;;;;;;;;;;;;;;;;;4959533;28;19915;-74
2023/07/19 23:18:25;;;;;;;;;;;;;;;;;;4959924;28;19918;-74
2023/07/19 23:21:11;;;;;;;;;;;;;;;;;;4947179;28;20038;-75
2023/07/19 23:23:58;;;;;;;;;;;;;;;;;;4953931;28;19918;-74
2023/07/19 23:26:44;;;;;;;;;;;;;;;;;;4961855;28;19939;-75
2023/07/19 23:29:32;;;;;;;;;;;;;;;;;;4964292;28;19965;-73
2023/07/19 23:32:18;;;;;;;;;;;;;;;;;;4954759;28;19922;-73
2023/07/19 23:35:06;;;;;;;;;;;;;;;;;;4966610;28;19918;-74
2023/07/19 23:37:53;;;;;;;;;;;;;;;;;;4964526;28;19929;-73
2023/07/19 23:40:39;;;;;;;;;;;;;;;;;;4964925;28;19918;-74
2023/07/19 23:43:26;;;;;;;;;;;;;;;;;;4958867;28;19918;-73
2023/07/19 23:46:15;;;;;;;;;;;;;;;;;;4956025;28;19922;-75
2023/07/19 23:49:01;;;;;;;;;;;;;;;;;;4955154;28;19919;-75
2023/07/19 23:51:48;;;;;;;;;;;;;;;;;;4950382;28;19933;-76
2023/07/19 23:54:34;;;;;;;;;;;;;;;;;;4953210;28;19921;-73
2023/07/19 23:57:21;;;;;;;;;;;;;;;;;;4953159;28;19953;-75
